createdAt,value
2019-03-27T00:01:53.707Z,11.20
2019-03-27T00:04:24.017Z,11.13
2019-03-27T00:06:53.899Z,12.30
2019-03-27T00:09:23.704Z,11.90
2019-03-27T00:11:53.568Z,11.30
2019-03-27T00:14:26.045Z,11.13
2019-03-27T00:16:55.847Z,10.10
2019-03-27T00:19:26.096Z,10.73
2019-03-27T00:21:55.939Z,11.00
2019-03-27T00:24:26.202Z,12.07
2019-03-27T00:26:56.129Z,10.83
2019-03-27T00:29:25.972Z,10.20
2019-03-27T00:31:55.857Z,11.23
2019-03-27T00:34:25.718Z,10.47
2019-03-27T00:36:55.539Z,10.87
2019-03-27T00:39:26.118Z,11.03
2019-03-27T00:41:56.046Z,11.07
2019-03-27T00:44:25.874Z,10.60
2019-03-27T00:46:55.770Z,11.10
2019-03-27T00:49:25.989Z,10.67
2019-03-27T00:51:55.894Z,11.40
2019-03-27T00:54:25.753Z,12.33
2019-03-27T00:56:55.608Z,10.90
2019-03-27T00:59:25.450Z,11.60
2019-03-27T01:01:55.297Z,9.30
2019-03-27T01:04:25.164Z,10.13
2019-03-27T01:06:54.997Z,10.43
2019-03-27T01:09:24.880Z,11.87
2019-03-27T01:11:54.730Z,11.40
2019-03-27T01:14:24.580Z,11.40
2019-03-27T01:16:54.523Z,11.57
2019-03-27T01:19:24.638Z,9.97
2019-03-27T01:21:54.457Z,12.27
2019-03-27T01:24:24.326Z,9.83
2019-03-27T01:26:54.156Z,11.40
2019-03-27T01:29:23.980Z,9.93
2019-03-27T01:31:54.261Z,11.10
2019-03-27T01:34:24.127Z,11.40
2019-03-27T01:36:53.948Z,9.70
2019-03-27T01:39:23.786Z,10.37
2019-03-27T01:41:53.574Z,12.77
2019-03-27T01:44:23.433Z,11.70
2019-03-27T01:46:53.276Z,12.20
2019-03-27T01:49:23.137Z,13.33
2019-03-27T01:51:52.965Z,11.23
2019-03-27T01:54:22.827Z,12.40
2019-03-27T01:56:53.027Z,12.20
2019-03-27T01:59:22.864Z,9.97
2019-03-27T02:01:52.720Z,11.17
2019-03-27T02:04:22.656Z,11.60
2019-03-27T02:06:52.482Z,11.77
2019-03-27T02:09:22.357Z,12.67
2019-03-27T02:11:52.656Z,11.43
2019-03-27T02:14:22.517Z,12.53
2019-03-27T02:16:52.379Z,12.17
2019-03-27T02:19:22.255Z,13.23
2019-03-27T02:21:52.129Z,11.87
2019-03-27T02:24:22.069Z,11.37
2019-03-27T02:26:52.298Z,12.70
2019-03-27T02:29:22.256Z,12.37
2019-03-27T02:31:52.224Z,13.40
2019-03-27T02:34:22.085Z,11.70
2019-03-27T02:36:51.920Z,14.50
2019-03-27T02:39:21.803Z,14.10
2019-03-27T02:41:51.548Z,14.07
2019-03-27T02:44:21.487Z,11.63
2019-03-27T02:46:54.419Z,13.70
2019-03-27T02:49:24.284Z,13.57
2019-03-27T02:51:54.148Z,13.07
2019-03-27T02:54:24.009Z,14.10
2019-03-27T02:56:53.880Z,13.20
2019-03-27T02:59:23.809Z,13.97
2019-03-27T03:01:55.149Z,13.30
2019-03-27T03:04:25.071Z,14.50
2019-03-27T03:06:55.004Z,14.50
2019-03-27T03:09:24.887Z,14.03
2019-03-27T03:11:54.696Z,14.13
2019-03-27T03:14:24.888Z,12.80
2019-03-27T03:16:54.738Z,16.30
2019-03-27T03:19:24.583Z,16.87
2019-03-27T03:21:54.414Z,17.03
2019-03-27T03:24:24.357Z,17.17
2019-03-27T03:26:54.278Z,18.07
2019-03-27T03:29:24.535Z,17.33
2019-03-27T03:31:54.913Z,15.97
2019-03-27T03:34:24.877Z,14.80
2019-03-27T03:36:54.806Z,16.30
2019-03-27T03:39:24.694Z,15.80
2019-03-27T03:41:55.561Z,15.83
2019-03-27T03:44:25.471Z,18.20
2019-03-27T03:46:59.998Z,19.87
2019-03-27T03:49:27.047Z,16.93
2019-03-27T03:51:57.049Z,19.60
2019-03-27T03:54:27.189Z,18.90
2019-03-27T03:56:57.822Z,19.33
2019-03-27T03:59:29.215Z,18.23
2019-03-27T04:02:02.895Z,20.17
2019-03-27T04:04:36.105Z,22.20
2019-03-27T04:07:06.086Z,19.93
2019-03-27T04:09:36.037Z,21.60
2019-03-27T04:12:05.937Z,20.70
2019-03-27T04:14:35.697Z,20.90
2019-03-27T04:17:17.152Z,19.60
2019-03-27T04:19:37.126Z,22.07
2019-03-27T04:22:06.953Z,20.20
2019-03-27T04:24:37.152Z,22.90
2019-03-27T04:27:06.998Z,20.20
2019-03-27T04:29:37.429Z,22.23
2019-03-27T04:32:07.356Z,23.87
2019-03-27T04:34:37.207Z,23.77
2019-03-27T04:37:07.127Z,21.23
2019-03-27T04:39:36.936Z,18.67
2019-03-27T04:42:06.797Z,21.13
2019-03-27T04:44:37.018Z,21.23
2019-03-27T04:47:06.875Z,21.10
2019-03-27T04:49:36.656Z,21.33
2019-03-27T04:52:06.539Z,20.70
2019-03-27T04:54:36.365Z,22.27
2019-03-27T04:57:06.213Z,21.27
2019-03-27T04:59:37.031Z,21.67
2019-03-27T05:02:06.863Z,21.10
2019-03-27T05:04:37.153Z,22.47
2019-03-27T05:07:06.983Z,20.60
2019-03-27T05:09:37.141Z,23.27
2019-03-27T05:12:07.048Z,24.00
2019-03-27T05:14:36.886Z,24.10
2019-03-27T05:17:06.726Z,23.23
2019-03-27T05:19:36.637Z,22.77
2019-03-27T05:22:06.522Z,21.17
2019-03-27T05:24:36.421Z,22.53
2019-03-27T05:27:06.323Z,24.67
2019-03-27T05:29:36.176Z,23.57
2019-03-27T05:32:06.369Z,24.63
2019-03-27T05:34:36.200Z,23.03
2019-03-27T05:37:06.129Z,23.50
2019-03-27T05:39:36.007Z,25.67
2019-03-27T05:42:05.867Z,23.57
2019-03-27T05:44:35.745Z,29.77
2019-03-27T05:47:05.592Z,115.30
2019-03-27T05:49:35.438Z,51.80
2019-03-27T05:52:05.315Z,30.20
2019-03-27T05:54:35.221Z,27.70
2019-03-27T05:57:05.121Z,27.27
2019-03-27T05:59:35.344Z,26.83
2019-03-27T06:02:06.670Z,25.67
2019-03-27T06:04:36.501Z,24.53
2019-03-27T06:07:09.405Z,25.50
2019-03-27T06:09:39.822Z,27.27
2019-03-27T06:12:10.267Z,27.57
2019-03-27T06:14:40.621Z,26.67
2019-03-27T06:17:10.485Z,26.63
2019-03-27T06:19:40.322Z,26.93
2019-03-27T06:22:10.196Z,26.37
2019-03-27T06:24:40.030Z,28.20
2019-03-27T06:27:10.363Z,25.30
2019-03-27T06:29:40.293Z,26.40
2019-03-27T06:32:10.146Z,25.80
2019-03-27T06:34:39.986Z,25.83
2019-03-27T06:37:09.853Z,27.13
2019-03-27T06:39:39.789Z,29.30
2019-03-27T06:42:09.988Z,27.10
2019-03-27T06:44:39.808Z,26.30
2019-03-27T06:47:09.888Z,27.77
2019-03-27T06:49:40.085Z,28.80
2019-03-27T06:52:09.920Z,28.10
2019-03-27T06:54:39.791Z,27.27
2019-03-27T06:57:09.652Z,28.87
2019-03-27T06:59:39.489Z,28.03
2019-03-27T07:02:09.354Z,26.60
2019-03-27T07:04:39.213Z,26.10
2019-03-27T07:07:09.080Z,28.60
2019-03-27T07:09:42.285Z,29.20
2019-03-27T07:12:20.849Z,26.73
2019-03-27T07:14:42.561Z,26.00
2019-03-27T07:17:12.773Z,28.10
2019-03-27T07:19:42.575Z,25.30
2019-03-27T07:22:12.797Z,26.57
2019-03-27T07:24:42.621Z,25.70
2019-03-27T07:27:12.971Z,26.80
2019-03-27T07:29:42.882Z,25.47
2019-03-27T07:32:12.829Z,25.70
2019-03-27T07:34:42.691Z,23.67
2019-03-27T07:37:12.526Z,24.10
2019-03-27T07:39:42.390Z,26.60
2019-03-27T07:42:12.254Z,26.53
2019-03-27T07:44:42.242Z,27.67
2019-03-27T07:47:12.087Z,25.07
2019-03-27T07:49:41.901Z,24.40
2019-03-27T07:52:11.750Z,25.50
2019-03-27T07:54:41.620Z,23.43
2019-03-27T07:57:11.446Z,26.57
2019-03-27T07:59:41.309Z,23.53
2019-03-27T08:02:11.137Z,23.40
2019-03-27T08:04:41.440Z,24.13
2019-03-27T08:07:11.294Z,24.13
2019-03-27T08:09:41.165Z,27.60
2019-03-27T08:12:11.008Z,24.13
2019-03-27T08:14:40.890Z,24.20
2019-03-27T08:17:11.001Z,25.00
2019-03-27T08:19:41.016Z,21.20
2019-03-27T08:22:10.891Z,22.57
2019-03-27T08:24:40.982Z,24.03
2019-03-27T08:27:10.970Z,22.47
2019-03-27T08:29:43.595Z,16.10
2019-03-27T08:32:13.600Z,17.87
2019-03-27T08:34:43.524Z,21.30
2019-03-27T08:37:13.390Z,17.67
2019-03-27T08:39:44.591Z,17.80
2019-03-27T08:42:14.554Z,17.23
2019-03-27T08:44:44.907Z,16.40
2019-03-27T08:47:14.861Z,17.53
2019-03-27T08:49:44.758Z,18.60
2019-03-27T08:52:14.656Z,16.47
2019-03-27T08:54:44.515Z,18.70
2019-03-27T08:57:14.459Z,17.10
2019-03-27T08:59:44.449Z,16.00
2019-03-27T09:02:14.285Z,18.13
2019-03-27T09:04:44.217Z,16.90
2019-03-27T09:07:14.112Z,13.80
2019-03-27T09:09:44.119Z,15.97
2019-03-27T09:12:14.015Z,12.80
2019-03-27T09:14:43.924Z,13.00
2019-03-27T09:17:14.020Z,12.93
2019-03-27T09:19:46.628Z,12.80
2019-03-27T09:22:16.695Z,12.20
2019-03-27T09:24:47.877Z,16.07
2019-03-27T09:27:17.757Z,16.90
2019-03-27T09:29:47.618Z,15.23
2019-03-27T09:32:17.532Z,13.77
2019-03-27T09:34:47.456Z,13.27
2019-03-27T09:37:17.431Z,11.10
2019-03-27T09:39:47.482Z,12.57
2019-03-27T09:42:17.663Z,12.43
2019-03-27T09:44:48.201Z,11.70
2019-03-27T09:47:21.451Z,9.53
2019-03-27T09:49:54.718Z,9.90
2019-03-27T09:52:24.884Z,11.07
2019-03-27T09:54:56.230Z,9.20
2019-03-27T09:57:26.430Z,9.97
2019-03-27T09:59:57.593Z,10.20
2019-03-27T10:02:30.401Z,12.43
2019-03-27T10:05:00.419Z,11.57
2019-03-27T10:07:30.421Z,12.27
2019-03-27T10:10:00.488Z,11.37
2019-03-27T10:12:32.056Z,12.70
2019-03-27T10:15:04.857Z,12.83
2019-03-27T10:17:36.101Z,13.17
2019-03-27T10:20:13.668Z,12.63
2019-03-27T10:22:45.960Z,13.60
2019-03-27T10:25:16.291Z,9.33
2019-03-27T10:27:46.617Z,11.70
2019-03-27T10:30:17.034Z,12.03
2019-03-27T10:32:48.341Z,10.53
2019-03-27T10:35:18.522Z,11.50
2019-03-27T10:37:50.265Z,9.53
2019-03-27T10:40:20.593Z,10.40
2019-03-27T10:42:50.955Z,10.50
2019-03-27T10:45:23.043Z,11.23
2019-03-27T10:47:55.589Z,10.47
2019-03-27T10:50:25.767Z,9.57
2019-03-27T10:52:55.764Z,9.50
2019-03-27T10:55:28.003Z,10.10
2019-03-27T10:58:03.878Z,10.03
2019-03-27T11:00:36.191Z,9.53
2019-03-27T11:03:09.180Z,9.87
2019-03-27T11:05:39.285Z,9.73
2019-03-27T11:08:11.394Z,10.87
2019-03-27T11:10:43.508Z,9.53
2019-03-27T11:13:13.713Z,11.00
2019-03-27T11:15:43.667Z,9.87
2019-03-27T11:18:13.847Z,11.33
2019-03-27T11:20:44.260Z,11.03
2019-03-27T11:23:14.402Z,12.50
2019-03-27T11:25:51.312Z,11.67
2019-03-27T11:28:21.519Z,11.50
2019-03-27T11:30:53.480Z,11.97
2019-03-27T11:33:24.565Z,11.00
2019-03-27T11:35:57.514Z,12.50
2019-03-27T11:38:27.640Z,12.07
2019-03-27T11:40:57.708Z,12.83
2019-03-27T11:43:30.286Z,13.63
2019-03-27T11:46:01.743Z,11.13
2019-03-27T11:48:31.819Z,11.60
2019-03-27T11:51:03.002Z,11.20
2019-03-27T11:53:36.299Z,15.10
2019-03-27T11:56:06.243Z,12.50
2019-03-27T11:58:39.147Z,11.60
2019-03-27T12:01:09.566Z,11.03
2019-03-27T12:03:39.667Z,11.73
2019-03-27T12:06:09.835Z,12.40
2019-03-27T12:08:42.427Z,11.40
2019-03-27T12:11:15.019Z,10.57
2019-03-27T12:13:45.657Z,9.17
2019-03-27T12:16:15.846Z,10.60
2019-03-27T12:18:50.358Z,8.93
2019-03-27T12:21:24.517Z,10.53
2019-03-27T12:23:55.026Z,10.67
2019-03-27T12:26:27.670Z,12.60
2019-03-27T12:29:01.471Z,9.33
2019-03-27T12:31:31.418Z,10.20
2019-03-27T12:34:01.323Z,11.87
2019-03-27T12:36:31.224Z,9.57
2019-03-27T12:39:01.177Z,10.43
2019-03-27T12:41:33.028Z,9.00
2019-03-27T12:44:02.831Z,9.30
2019-03-27T12:46:32.765Z,10.60
2019-03-27T12:49:02.651Z,10.13
2019-03-27T12:51:32.481Z,8.83
2019-03-27T12:54:02.363Z,9.37
2019-03-27T12:56:32.193Z,10.57
2019-03-27T12:59:02.054Z,9.83
2019-03-27T13:01:32.380Z,10.63
2019-03-27T13:04:02.244Z,9.77
2019-03-27T13:06:32.532Z,8.37
2019-03-27T13:09:05.155Z,9.07
2019-03-27T13:11:36.749Z,7.77
2019-03-27T13:14:08.380Z,8.93
2019-03-27T13:16:38.520Z,8.20
2019-03-27T13:19:08.683Z,11.10
2019-03-27T13:21:39.393Z,10.57
2019-03-27T13:24:09.333Z,9.43
2019-03-27T13:26:39.924Z,10.27
2019-03-27T13:29:10.221Z,9.70
2019-03-27T13:31:40.407Z,10.73
2019-03-27T13:34:10.336Z,11.53
2019-03-27T13:36:45.597Z,10.40
2019-03-27T13:39:17.027Z,9.50
2019-03-27T13:41:46.892Z,11.57
2019-03-27T13:44:16.865Z,10.53
2019-03-27T13:46:46.729Z,8.30
2019-03-27T13:49:16.763Z,7.90
2019-03-27T13:51:46.660Z,8.70
2019-03-27T13:54:19.562Z,9.10
2019-03-27T13:56:49.521Z,10.20
2019-03-27T13:59:19.433Z,9.27
2019-03-27T14:01:49.281Z,9.70
2019-03-27T14:04:21.501Z,10.23
2019-03-27T14:06:51.395Z,10.20
2019-03-27T14:09:21.350Z,9.90
2019-03-27T14:11:51.281Z,9.17
2019-03-27T14:14:21.121Z,9.70
2019-03-27T14:16:51.556Z,9.70
2019-03-27T14:19:21.416Z,9.30
2019-03-27T14:21:54.937Z,8.47
2019-03-27T14:24:22.860Z,7.33
2019-03-27T14:26:52.691Z,8.80
2019-03-27T14:29:22.595Z,7.90
2019-03-27T14:31:53.247Z,8.60
2019-03-27T14:34:23.561Z,8.57
2019-03-27T14:36:53.515Z,7.83
2019-03-27T14:39:23.442Z,8.60
2019-03-27T14:41:53.314Z,8.93
2019-03-27T14:44:23.195Z,9.23
2019-03-27T14:46:53.292Z,9.13
2019-03-27T14:49:24.081Z,8.70
2019-03-27T14:52:07.421Z,10.70
2019-03-27T14:54:26.475Z,8.10
2019-03-27T14:56:56.369Z,8.23
2019-03-27T14:59:26.249Z,7.50
2019-03-27T15:01:56.099Z,9.37
2019-03-27T15:04:26.454Z,8.07
2019-03-27T15:06:56.317Z,8.87
2019-03-27T15:09:26.243Z,7.53
2019-03-27T15:11:56.097Z,8.80
2019-03-27T15:14:25.981Z,8.50
2019-03-27T15:16:55.862Z,7.73
2019-03-27T15:19:26.120Z,9.13
2019-03-27T15:21:55.989Z,8.33
2019-03-27T15:24:26.293Z,8.00
2019-03-27T15:26:56.122Z,9.20
2019-03-27T15:29:25.916Z,8.80
2019-03-27T15:31:56.274Z,8.67
2019-03-27T15:34:26.142Z,8.53
2019-03-27T15:36:56.127Z,8.67
2019-03-27T15:39:26.501Z,9.10
2019-03-27T15:41:56.378Z,9.90
2019-03-27T15:44:26.784Z,8.60
2019-03-27T15:46:56.905Z,8.93
2019-03-27T15:49:26.928Z,10.63
2019-03-27T15:51:56.840Z,11.90
2019-03-27T15:54:27.212Z,9.73
2019-03-27T15:56:57.102Z,8.80
2019-03-27T15:59:27.046Z,10.10
2019-03-27T16:01:58.010Z,8.67
2019-03-27T16:04:28.047Z,10.60
2019-03-27T16:06:58.430Z,15.10
2019-03-27T16:09:28.285Z,9.53
2019-03-27T16:11:58.704Z,13.10
2019-03-27T16:14:29.002Z,13.50
2019-03-27T16:17:12.681Z,12.37
2019-03-27T16:19:30.891Z,11.30
2019-03-27T16:22:00.750Z,10.40
2019-03-27T16:24:30.587Z,11.33
2019-03-27T16:27:04.765Z,8.77
2019-03-27T16:29:32.653Z,12.40
2019-03-27T16:32:02.496Z,9.67
2019-03-27T16:34:32.446Z,11.77
2019-03-27T16:37:02.300Z,11.10
2019-03-27T16:39:32.141Z,10.20
2019-03-27T16:42:02.271Z,9.50
2019-03-27T16:44:32.191Z,10.37
2019-03-27T16:47:02.359Z,9.80
2019-03-27T16:49:32.242Z,10.33
2019-03-27T16:52:02.196Z,10.30
2019-03-27T16:54:32.080Z,8.80
2019-03-27T16:57:01.941Z,9.50
2019-03-27T16:59:31.793Z,10.10
2019-03-27T17:02:01.536Z,9.50
2019-03-27T17:04:31.447Z,8.90
2019-03-27T17:07:01.305Z,9.47
2019-03-27T17:09:33.538Z,9.30
2019-03-27T17:12:03.799Z,10.83
2019-03-27T17:14:34.181Z,9.60
2019-03-27T17:17:04.099Z,10.80
2019-03-27T17:19:33.942Z,9.67
2019-03-27T17:22:03.794Z,9.20
2019-03-27T17:24:33.647Z,10.20
2019-03-27T17:27:03.480Z,9.60
2019-03-27T17:29:35.595Z,10.90
2019-03-27T17:32:05.024Z,9.43
2019-03-27T17:34:34.866Z,9.80
2019-03-27T17:37:04.781Z,9.80
2019-03-27T17:39:34.611Z,9.77
2019-03-27T17:42:04.494Z,9.67
2019-03-27T17:44:34.355Z,8.87
2019-03-27T17:47:04.288Z,8.83
2019-03-27T17:49:34.464Z,9.90
2019-03-27T17:52:04.335Z,10.17
2019-03-27T17:54:34.305Z,10.13
2019-03-27T17:57:04.212Z,9.33
2019-03-27T17:59:34.138Z,10.20
2019-03-27T18:02:11.587Z,9.17
2019-03-27T18:04:41.508Z,9.00
2019-03-27T18:07:11.853Z,10.20
2019-03-27T18:09:41.623Z,7.90
2019-03-27T18:12:11.813Z,10.30
2019-03-27T18:14:41.660Z,10.10
2019-03-27T18:17:11.529Z,8.90
2019-03-27T18:19:41.372Z,8.50
2019-03-27T18:22:11.322Z,9.73
2019-03-27T18:24:41.279Z,9.27
2019-03-27T18:27:11.171Z,11.80
2019-03-27T18:29:41.392Z,9.23
2019-03-27T18:32:11.331Z,10.97
2019-03-27T18:34:41.255Z,10.20
2019-03-27T18:37:11.547Z,9.60
2019-03-27T18:39:41.811Z,9.50
2019-03-27T18:42:11.661Z,8.63
2019-03-27T18:44:41.549Z,9.33
2019-03-27T18:47:11.489Z,8.33
2019-03-27T18:49:41.406Z,9.40
2019-03-27T18:52:11.342Z,10.50
2019-03-27T18:54:41.244Z,9.33
2019-03-27T18:57:12.047Z,9.27
2019-03-27T18:59:41.925Z,9.90
2019-03-27T19:02:11.801Z,9.70
2019-03-27T19:04:41.924Z,9.70
2019-03-27T19:07:11.800Z,10.20
2019-03-27T19:09:41.673Z,9.70
2019-03-27T19:12:11.517Z,9.80
2019-03-27T19:14:41.405Z,9.63
2019-03-27T19:17:11.604Z,9.93
2019-03-27T19:19:42.051Z,9.43
2019-03-27T19:22:11.961Z,9.10
2019-03-27T19:24:41.910Z,10.97
2019-03-27T19:27:11.840Z,10.03
2019-03-27T19:29:44.772Z,9.80
2019-03-27T19:32:14.575Z,10.07
2019-03-27T19:34:44.484Z,10.40
2019-03-27T19:37:14.325Z,10.40
2019-03-27T19:39:44.788Z,10.67
2019-03-27T19:42:14.942Z,9.83
2019-03-27T19:44:44.837Z,10.93
2019-03-27T19:47:14.762Z,10.37
2019-03-27T19:49:45.092Z,12.47
2019-03-27T19:52:14.965Z,12.10
2019-03-27T19:54:44.815Z,13.17
2019-03-27T19:57:14.762Z,12.43
2019-03-27T19:59:44.734Z,12.50
2019-03-27T20:05:43.266Z,12.60
2019-03-27T20:08:13.455Z,12.00
2019-03-27T20:10:43.287Z,11.53
2019-03-27T20:13:15.247Z,13.60
2019-03-27T20:15:45.966Z,15.33
2019-03-27T20:18:15.813Z,12.73
2019-03-27T20:20:45.625Z,12.60
2019-03-27T20:23:15.900Z,14.40
2019-03-27T20:25:45.738Z,12.17
2019-03-27T20:28:15.601Z,13.40
2019-03-27T20:30:45.483Z,13.77
2019-03-27T20:33:15.666Z,13.30
2019-03-27T20:35:45.500Z,13.10
2019-03-27T20:38:15.393Z,13.13
2019-03-27T20:40:46.029Z,11.47
2019-03-27T20:43:16.366Z,11.87
2019-03-27T20:45:46.338Z,13.97
2019-03-27T20:48:16.284Z,12.87
2019-03-27T20:50:46.153Z,14.47
2019-03-27T20:53:16.056Z,14.23
2019-03-27T20:55:45.892Z,13.83
2019-03-27T20:58:15.873Z,12.93
2019-03-27T21:00:45.724Z,13.17
2019-03-27T21:03:15.585Z,13.50
2019-03-27T21:05:45.841Z,12.80
2019-03-27T21:08:15.719Z,14.27
2019-03-27T21:10:45.558Z,14.33
2019-03-27T21:13:15.421Z,13.87
2019-03-27T21:15:45.237Z,14.93
2019-03-27T21:18:15.132Z,13.93
2019-03-27T21:20:44.948Z,13.37
2019-03-27T21:23:15.242Z,16.20
2019-03-27T21:25:45.181Z,14.03
2019-03-27T21:28:15.035Z,13.00
2019-03-27T21:30:45.025Z,14.17
2019-03-27T21:33:14.928Z,12.60
2019-03-27T21:35:45.452Z,12.50
2019-03-27T21:38:15.271Z,13.20
2019-03-27T21:40:45.113Z,13.43
2019-03-27T21:43:15.936Z,13.03
2019-03-27T21:45:46.070Z,13.77
2019-03-27T21:48:15.894Z,13.43
2019-03-27T21:50:45.820Z,14.00
2019-03-27T21:53:15.654Z,13.57
2019-03-27T21:55:45.484Z,13.90
2019-03-27T21:58:15.318Z,12.70
2019-03-27T22:00:45.129Z,13.33
2019-03-27T22:03:14.974Z,12.63
2019-03-27T22:05:44.808Z,13.80
2019-03-27T22:08:14.633Z,14.10
2019-03-27T22:10:44.473Z,15.20
2019-03-27T22:13:14.300Z,14.10
2019-03-27T22:15:44.182Z,14.73
2019-03-27T22:18:14.436Z,12.97
2019-03-27T22:20:44.346Z,14.33
2019-03-27T22:23:14.189Z,13.57
2019-03-27T22:25:44.030Z,12.30
2019-03-27T22:28:13.893Z,12.63
2019-03-27T22:30:43.717Z,14.33
2019-03-27T22:33:13.873Z,13.93
2019-03-27T22:35:43.727Z,14.57
2019-03-27T22:38:14.656Z,13.33
2019-03-27T22:40:44.616Z,12.97
2019-03-27T22:43:14.556Z,12.97
2019-03-27T22:45:44.443Z,13.80
2019-03-27T22:48:14.319Z,14.80
2019-03-27T22:50:44.191Z,12.93
2019-03-27T22:53:14.081Z,14.07
2019-03-27T22:55:49.588Z,13.33
2019-03-27T22:58:15.447Z,13.73
2019-03-27T23:00:52.475Z,13.97
2019-03-27T23:03:22.422Z,12.73
2019-03-27T23:05:52.368Z,13.60
2019-03-27T23:08:22.187Z,14.50
2019-03-27T23:10:52.406Z,14.57
2019-03-27T23:13:22.286Z,16.23
2019-03-27T23:15:52.214Z,12.83
2019-03-27T23:18:22.057Z,14.37
2019-03-27T23:20:51.917Z,15.17
2019-03-27T23:23:22.113Z,20.40
2019-03-27T23:26:02.485Z,15.10
2019-03-27T23:28:24.272Z,14.80
2019-03-27T23:30:55.352Z,16.27
2019-03-27T23:33:25.197Z,16.40
2019-03-27T23:35:55.065Z,16.97
2019-03-27T23:38:24.924Z,14.67
2019-03-27T23:40:54.806Z,14.80
2019-03-27T23:43:24.672Z,16.50
2019-03-27T23:45:54.519Z,14.77
2019-03-27T23:48:24.344Z,13.60
2019-03-27T23:50:54.298Z,15.77
2019-03-27T23:53:24.488Z,15.77
2019-03-27T23:55:54.335Z,14.13
2019-03-27T23:58:24.557Z,15.40
